sensor_id;sensor_type;location;lat;lon;timestamp;P1;durP1;ratioP1;P2;durP2;ratioP2
32748;SDS011;19119;52.474;13.710;2023-05-07T00:01:42;18.85;;;10.77;;
32748;SDS011;19119;52.474;13.710;2023-05-07T00:04:08;15.85;;;10.38;;
32748;SDS011;19119;52.474;13.710;2023-05-07T00:06:33;18.73;;;9.77;;
32748;SDS011;19119;52.474;13.710;2023-05-07T00:08:59;19.38;;;11.15;;
32748;SDS011;19119;52.474;13.710;2023-05-07T00:11:25;18.63;;;11.07;;
32748;SDS011;19119;52.474;13.710;2023-05-07T00:13:51;15.80;;;10.75;;
32748;SDS011;19119;52.474;13.710;2023-05-07T00:16:17;15.63;;;10.10;;
32748;SDS011;19119;52.474;13.710;2023-05-07T00:18:42;16.77;;;10.32;;
32748;SDS011;19119;52.474;13.710;2023-05-07T00:21:08;17.98;;;10.50;;
32748;SDS011;19119;52.474;13.710;2023-05-07T00:23:34;16.33;;;10.95;;
32748;SDS011;19119;52.474;13.710;2023-05-07T00:25:59;18.15;;;10.70;;
32748;SDS011;19119;52.474;13.710;2023-05-07T00:28:25;17.45;;;10.07;;
32748;SDS011;19119;52.474;13.710;2023-05-07T00:30:50;18.63;;;10.95;;
32748;SDS011;19119;52.474;13.710;2023-05-07T00:33:16;21.80;;;11.88;;
32748;SDS011;19119;52.474;13.710;2023-05-07T00:35:42;17.92;;;11.10;;
32748;SDS011;19119;52.474;13.710;2023-05-07T00:38:07;22.02;;;12.30;;
32748;SDS011;19119;52.474;13.710;2023-05-07T00:40:33;20.92;;;11.70;;
32748;SDS011;19119;52.474;13.710;2023-05-07T00:42:59;20.33;;;11.23;;
32748;SDS011;19119;52.474;13.710;2023-05-07T00:45:28;20.13;;;10.98;;
32748;SDS011;19119;52.474;13.710;2023-05-07T00:47:54;17.63;;;10.77;;
32748;SDS011;19119;52.474;13.710;2023-05-07T00:50:20;20.13;;;11.52;;
32748;SDS011;19119;52.474;13.710;2023-05-07T00:52:47;22.33;;;12.38;;
32748;SDS011;19119;52.474;13.710;2023-05-07T00:55:12;22.65;;;10.90;;
32748;SDS011;19119;52.474;13.710;2023-05-07T00:57:39;21.05;;;10.98;;
32748;SDS011;19119;52.474;13.710;2023-05-07T01:00:06;17.98;;;10.85;;
32748;SDS011;19119;52.474;13.710;2023-05-07T01:02:34;19.42;;;10.25;;
32748;SDS011;19119;52.474;13.710;2023-05-07T01:05:00;18.83;;;11.13;;
32748;SDS011;19119;52.474;13.710;2023-05-07T01:07:28;20.20;;;11.45;;
32748;SDS011;19119;52.474;13.710;2023-05-07T01:09:55;18.55;;;10.18;;
32748;SDS011;19119;52.474;13.710;2023-05-07T01:12:22;21.80;;;11.50;;
32748;SDS011;19119;52.474;13.710;2023-05-07T01:14:48;19.00;;;10.68;;
32748;SDS011;19119;52.474;13.710;2023-05-07T01:17:22;21.02;;;10.50;;
32748;SDS011;19119;52.474;13.710;2023-05-07T01:19:48;17.13;;;10.65;;
32748;SDS011;19119;52.474;13.710;2023-05-07T01:22:14;18.98;;;11.93;;
32748;SDS011;19119;52.474;13.710;2023-05-07T01:24:41;19.95;;;10.68;;
32748;SDS011;19119;52.474;13.710;2023-05-07T01:27:07;19.00;;;10.30;;
32748;SDS011;19119;52.474;13.710;2023-05-07T01:29:33;15.45;;;10.82;;
32748;SDS011;19119;52.474;13.710;2023-05-07T01:31:59;15.20;;;11.10;;
32748;SDS011;19119;52.474;13.710;2023-05-07T01:34:25;18.45;;;10.48;;
32748;SDS011;19119;52.474;13.710;2023-05-07T01:36:54;19.30;;;11.15;;
32748;SDS011;19119;52.474;13.710;2023-05-07T01:39:24;22.85;;;11.68;;
32748;SDS011;19119;52.474;13.710;2023-05-07T01:41:50;19.08;;;10.68;;
32748;SDS011;19119;52.474;13.710;2023-05-07T01:44:16;19.90;;;11.55;;
32748;SDS011;19119;52.474;13.710;2023-05-07T01:46:44;18.77;;;10.95;;
32748;SDS011;19119;52.474;13.710;2023-05-07T01:49:10;18.33;;;10.93;;
32748;SDS011;19119;52.474;13.710;2023-05-07T01:51:36;20.77;;;11.88;;
32748;SDS011;19119;52.474;13.710;2023-05-07T01:54:01;17.10;;;10.65;;
32748;SDS011;19119;52.474;13.710;2023-05-07T01:56:27;16.55;;;10.77;;
32748;SDS011;19119;52.474;13.710;2023-05-07T01:58:52;18.85;;;10.57;;
32748;SDS011;19119;52.474;13.710;2023-05-07T02:01:18;16.67;;;10.15;;
32748;SDS011;19119;52.474;13.710;2023-05-07T02:03:44;16.92;;;9.82;;
32748;SDS011;19119;52.474;13.710;2023-05-07T02:06:09;16.33;;;9.77;;
32748;SDS011;19119;52.474;13.710;2023-05-07T02:08:35;20.70;;;10.98;;
32748;SDS011;19119;52.474;13.710;2023-05-07T02:11:01;15.82;;;10.77;;
32748;SDS011;19119;52.474;13.710;2023-05-07T02:13:28;17.95;;;11.18;;
32748;SDS011;19119;52.474;13.710;2023-05-07T02:15:55;16.33;;;10.40;;
32748;SDS011;19119;52.474;13.710;2023-05-07T02:18:21;16.30;;;9.60;;
32748;SDS011;19119;52.474;13.710;2023-05-07T02:20:46;18.27;;;11.10;;
32748;SDS011;19119;52.474;13.710;2023-05-07T02:23:12;18.45;;;10.65;;
32748;SDS011;19119;52.474;13.710;2023-05-07T02:25:37;18.63;;;10.52;;
32748;SDS011;19119;52.474;13.710;2023-05-07T02:28:03;17.95;;;10.55;;
32748;SDS011;19119;52.474;13.710;2023-05-07T02:30:28;18.33;;;10.85;;
32748;SDS011;19119;52.474;13.710;2023-05-07T02:32:54;18.70;;;9.93;;
32748;SDS011;19119;52.474;13.710;2023-05-07T02:35:20;15.23;;;10.57;;
32748;SDS011;19119;52.474;13.710;2023-05-07T02:37:45;19.05;;;10.93;;
32748;SDS011;19119;52.474;13.710;2023-05-07T02:40:11;17.95;;;10.48;;
32748;SDS011;19119;52.474;13.710;2023-05-07T02:42:37;18.38;;;10.13;;
32748;SDS011;19119;52.474;13.710;2023-05-07T02:45:02;17.90;;;10.00;;
32748;SDS011;19119;52.474;13.710;2023-05-07T02:47:28;14.50;;;9.43;;
32748;SDS011;19119;52.474;13.710;2023-05-07T02:49:54;18.48;;;9.63;;
32748;SDS011;19119;52.474;13.710;2023-05-07T02:52:20;16.98;;;10.10;;
32748;SDS011;19119;52.474;13.710;2023-05-07T02:54:46;17.10;;;10.23;;
32748;SDS011;19119;52.474;13.710;2023-05-07T02:57:12;17.08;;;10.27;;
32748;SDS011;19119;52.474;13.710;2023-05-07T02:59:37;15.98;;;10.55;;
32748;SDS011;19119;52.474;13.710;2023-05-07T03:02:03;17.58;;;9.50;;
32748;SDS011;19119;52.474;13.710;2023-05-07T03:04:28;17.73;;;10.25;;
32748;SDS011;19119;52.474;13.710;2023-05-07T03:06:54;16.42;;;10.50;;
32748;SDS011;19119;52.474;13.710;2023-05-07T03:09:20;18.45;;;10.77;;
32748;SDS011;19119;52.474;13.710;2023-05-07T03:11:46;16.90;;;10.05;;
32748;SDS011;19119;52.474;13.710;2023-05-07T03:14:11;20.30;;;10.68;;
32748;SDS011;19119;52.474;13.710;2023-05-07T03:16:37;18.50;;;10.40;;
32748;SDS011;19119;52.474;13.710;2023-05-07T03:19:03;14.25;;;9.32;;
32748;SDS011;19119;52.474;13.710;2023-05-07T03:21:28;15.18;;;9.43;;
32748;SDS011;19119;52.474;13.710;2023-05-07T03:23:55;16.45;;;9.90;;
32748;SDS011;19119;52.474;13.710;2023-05-07T03:26:21;17.33;;;9.95;;
32748;SDS011;19119;52.474;13.710;2023-05-07T03:28:47;14.30;;;8.95;;
32748;SDS011;19119;52.474;13.710;2023-05-07T03:31:12;17.17;;;10.52;;
32748;SDS011;19119;52.474;13.710;2023-05-07T03:33:39;17.48;;;10.13;;
32748;SDS011;19119;52.474;13.710;2023-05-07T03:36:18;19.40;;;10.52;;
32748;SDS011;19119;52.474;13.710;2023-05-07T03:38:43;15.65;;;9.55;;
32748;SDS011;19119;52.474;13.710;2023-05-07T03:41:09;17.40;;;9.00;;
32748;SDS011;19119;52.474;13.710;2023-05-07T03:43:34;17.95;;;10.05;;
32748;SDS011;19119;52.474;13.710;2023-05-07T03:46:00;17.77;;;10.82;;
32748;SDS011;19119;52.474;13.710;2023-05-07T03:48:25;18.70;;;9.02;;
32748;SDS011;19119;52.474;13.710;2023-05-07T03:50:51;17.20;;;10.13;;
32748;SDS011;19119;52.474;13.710;2023-05-07T03:53:16;15.32;;;9.60;;
32748;SDS011;19119;52.474;13.710;2023-05-07T03:55:42;15.23;;;9.15;;
32748;SDS011;19119;52.474;13.710;2023-05-07T03:58:07;15.15;;;9.20;;
32748;SDS011;19119;52.474;13.710;2023-05-07T04:00:33;17.85;;;9.45;;
32748;SDS011;19119;52.474;13.710;2023-05-07T04:03:03;14.48;;;9.75;;
32748;SDS011;19119;52.474;13.710;2023-05-07T04:05:29;16.30;;;10.48;;
32748;SDS011;19119;52.474;13.710;2023-05-07T04:07:55;16.67;;;9.48;;
32748;SDS011;19119;52.474;13.710;2023-05-07T04:10:21;14.13;;;9.32;;
32748;SDS011;19119;52.474;13.710;2023-05-07T04:12:46;14.27;;;8.93;;
32748;SDS011;19119;52.474;13.710;2023-05-07T04:15:12;13.70;;;8.68;;
32748;SDS011;19119;52.474;13.710;2023-05-07T04:17:37;15.23;;;7.90;;
32748;SDS011;19119;52.474;13.710;2023-05-07T04:20:03;14.65;;;8.55;;
32748;SDS011;19119;52.474;13.710;2023-05-07T04:22:29;14.73;;;8.57;;
32748;SDS011;19119;52.474;13.710;2023-05-07T04:24:55;18.15;;;8.45;;
32748;SDS011;19119;52.474;13.710;2023-05-07T04:27:21;15.40;;;10.18;;
32748;SDS011;19119;52.474;13.710;2023-05-07T04:29:46;14.77;;;8.07;;
32748;SDS011;19119;52.474;13.710;2023-05-07T04:32:12;14.00;;;8.38;;
32748;SDS011;19119;52.474;13.710;2023-05-07T04:34:38;13.75;;;8.25;;
32748;SDS011;19119;52.474;13.710;2023-05-07T04:37:03;14.10;;;7.28;;
32748;SDS011;19119;52.474;13.710;2023-05-07T04:39:29;13.43;;;7.22;;
32748;SDS011;19119;52.474;13.710;2023-05-07T04:41:55;13.02;;;7.47;;
32748;SDS011;19119;52.474;13.710;2023-05-07T04:44:20;14.32;;;7.38;;
32748;SDS011;19119;52.474;13.710;2023-05-07T04:46:46;9.70;;;6.75;;
32748;SDS011;19119;52.474;13.710;2023-05-07T04:49:11;14.15;;;7.63;;
32748;SDS011;19119;52.474;13.710;2023-05-07T04:51:37;14.60;;;7.38;;
32748;SDS011;19119;52.474;13.710;2023-05-07T04:54:03;13.32;;;9.05;;
32748;SDS011;19119;52.474;13.710;2023-05-07T04:56:29;13.27;;;7.50;;
32748;SDS011;19119;52.474;13.710;2023-05-07T04:58:57;13.80;;;8.20;;
32748;SDS011;19119;52.474;13.710;2023-05-07T05:01:23;16.42;;;9.77;;
32748;SDS011;19119;52.474;13.710;2023-05-07T05:03:48;12.57;;;8.20;;
32748;SDS011;19119;52.474;13.710;2023-05-07T05:06:14;15.18;;;7.80;;
32748;SDS011;19119;52.474;13.710;2023-05-07T05:08:39;13.05;;;7.82;;
32748;SDS011;19119;52.474;13.710;2023-05-07T05:11:05;13.82;;;8.10;;
32748;SDS011;19119;52.474;13.710;2023-05-07T05:13:31;14.65;;;8.23;;
32748;SDS011;19119;52.474;13.710;2023-05-07T05:15:56;14.48;;;8.02;;
32748;SDS011;19119;52.474;13.710;2023-05-07T05:18:22;14.20;;;8.65;;
32748;SDS011;19119;52.474;13.710;2023-05-07T05:20:47;12.35;;;8.18;;
32748;SDS011;19119;52.474;13.710;2023-05-07T05:23:13;11.68;;;7.97;;
32748;SDS011;19119;52.474;13.710;2023-05-07T05:25:38;14.73;;;8.02;;
32748;SDS011;19119;52.474;13.710;2023-05-07T05:28:05;13.48;;;7.95;;
32748;SDS011;19119;52.474;13.710;2023-05-07T05:30:30;11.48;;;7.90;;
32748;SDS011;19119;52.474;13.710;2023-05-07T05:32:56;12.05;;;7.97;;
32748;SDS011;19119;52.474;13.710;2023-05-07T05:35:21;13.65;;;7.35;;
32748;SDS011;19119;52.474;13.710;2023-05-07T05:37:47;10.68;;;7.10;;
32748;SDS011;19119;52.474;13.710;2023-05-07T05:40:13;13.02;;;6.65;;
32748;SDS011;19119;52.474;13.710;2023-05-07T05:42:38;12.15;;;7.25;;
32748;SDS011;19119;52.474;13.710;2023-05-07T05:45:04;11.48;;;6.53;;
32748;SDS011;19119;52.474;13.710;2023-05-07T05:47:30;10.52;;;6.55;;
32748;SDS011;19119;52.474;13.710;2023-05-07T05:49:56;12.57;;;6.82;;
32748;SDS011;19119;52.474;13.710;2023-05-07T05:52:21;13.55;;;7.40;;
32748;SDS011;19119;52.474;13.710;2023-05-07T05:54:48;15.18;;;8.82;;
32748;SDS011;19119;52.474;13.710;2023-05-07T05:57:14;11.45;;;7.30;;
32748;SDS011;19119;52.474;13.710;2023-05-07T05:59:40;14.07;;;8.48;;
32748;SDS011;19119;52.474;13.710;2023-05-07T06:02:06;10.68;;;6.80;;
32748;SDS011;19119;52.474;13.710;2023-05-07T06:04:32;10.13;;;7.00;;
32748;SDS011;19119;52.474;13.710;2023-05-07T06:06:57;12.38;;;7.63;;
32748;SDS011;19119;52.474;13.710;2023-05-07T06:09:23;11.40;;;6.80;;
32748;SDS011;19119;52.474;13.710;2023-05-07T06:11:48;11.68;;;7.50;;
32748;SDS011;19119;52.474;13.710;2023-05-07T06:14:14;9.77;;;7.05;;
32748;SDS011;19119;52.474;13.710;2023-05-07T06:16:40;12.45;;;8.30;;
32748;SDS011;19119;52.474;13.710;2023-05-07T06:19:06;11.35;;;7.43;;
32748;SDS011;19119;52.474;13.710;2023-05-07T06:21:32;13.32;;;6.32;;
32748;SDS011;19119;52.474;13.710;2023-05-07T06:23:57;12.88;;;6.82;;
32748;SDS011;19119;52.474;13.710;2023-05-07T06:26:23;12.52;;;6.72;;
32748;SDS011;19119;52.474;13.710;2023-05-07T06:28:48;11.05;;;6.45;;
32748;SDS011;19119;52.474;13.710;2023-05-07T06:31:15;9.02;;;5.50;;
32748;SDS011;19119;52.474;13.710;2023-05-07T06:33:42;12.60;;;5.88;;
32748;SDS011;19119;52.474;13.710;2023-05-07T06:36:08;9.25;;;5.38;;
32748;SDS011;19119;52.474;13.710;2023-05-07T06:38:34;7.78;;;5.22;;
32748;SDS011;19119;52.474;13.710;2023-05-07T06:40:59;10.25;;;6.35;;
32748;SDS011;19119;52.474;13.710;2023-05-07T06:43:25;10.60;;;5.95;;
32748;SDS011;19119;52.474;13.710;2023-05-07T06:45:50;7.90;;;5.72;;
32748;SDS011;19119;52.474;13.710;2023-05-07T06:48:16;9.88;;;6.30;;
32748;SDS011;19119;52.474;13.710;2023-05-07T06:50:42;10.68;;;6.60;;
32748;SDS011;19119;52.474;13.710;2023-05-07T06:53:07;10.80;;;5.72;;
32748;SDS011;19119;52.474;13.710;2023-05-07T06:55:33;9.25;;;6.22;;
32748;SDS011;19119;52.474;13.710;2023-05-07T06:57:58;7.63;;;5.57;;
32748;SDS011;19119;52.474;13.710;2023-05-07T07:00:26;8.50;;;5.28;;
32748;SDS011;19119;52.474;13.710;2023-05-07T07:02:52;10.90;;;5.57;;
32748;SDS011;19119;52.474;13.710;2023-05-07T07:05:18;6.70;;;4.93;;
32748;SDS011;19119;52.474;13.710;2023-05-07T07:07:44;8.38;;;5.03;;
32748;SDS011;19119;52.474;13.710;2023-05-07T07:10:09;6.93;;;4.82;;
32748;SDS011;19119;52.474;13.710;2023-05-07T07:12:35;10.32;;;6.00;;
32748;SDS011;19119;52.474;13.710;2023-05-07T07:15:00;8.50;;;4.78;;
32748;SDS011;19119;52.474;13.710;2023-05-07T07:17:27;8.80;;;5.40;;
32748;SDS011;19119;52.474;13.710;2023-05-07T07:19:53;7.85;;;5.10;;
32748;SDS011;19119;52.474;13.710;2023-05-07T07:22:19;7.32;;;5.40;;
32748;SDS011;19119;52.474;13.710;2023-05-07T07:24:44;10.50;;;6.28;;
32748;SDS011;19119;52.474;13.710;2023-05-07T07:27:10;8.90;;;5.18;;
32748;SDS011;19119;52.474;13.710;2023-05-07T07:29:35;8.57;;;5.72;;
32748;SDS011;19119;52.474;13.710;2023-05-07T07:32:01;8.13;;;5.15;;
32748;SDS011;19119;52.474;13.710;2023-05-07T07:34:26;11.25;;;5.53;;
32748;SDS011;19119;52.474;13.710;2023-05-07T07:36:52;8.07;;;5.20;;
32748;SDS011;19119;52.474;13.710;2023-05-07T07:39:17;8.48;;;5.05;;
32748;SDS011;19119;52.474;13.710;2023-05-07T07:41:43;9.52;;;5.45;;
32748;SDS011;19119;52.474;13.710;2023-05-07T07:44:08;6.30;;;4.47;;
32748;SDS011;19119;52.474;13.710;2023-05-07T07:46:37;8.07;;;3.95;;
32748;SDS011;19119;52.474;13.710;2023-05-07T07:49:03;6.10;;;4.10;;
32748;SDS011;19119;52.474;13.710;2023-05-07T07:51:28;5.30;;;3.92;;
32748;SDS011;19119;52.474;13.710;2023-05-07T07:53:55;5.35;;;3.55;;
32748;SDS011;19119;52.474;13.710;2023-05-07T07:56:22;6.47;;;4.13;;
32748;SDS011;19119;52.474;13.710;2023-05-07T07:58:48;4.03;;;3.15;;
32748;SDS011;19119;52.474;13.710;2023-05-07T08:01:14;4.90;;;2.85;;
32748;SDS011;19119;52.474;13.710;2023-05-07T08:03:39;6.40;;;3.13;;
32748;SDS011;19119;52.474;13.710;2023-05-07T08:06:05;5.20;;;3.63;;
32748;SDS011;19119;52.474;13.710;2023-05-07T08:08:31;5.30;;;3.28;;
32748;SDS011;19119;52.474;13.710;2023-05-07T08:10:56;5.43;;;3.40;;
32748;SDS011;19119;52.474;13.710;2023-05-07T08:13:22;7.28;;;3.80;;
32748;SDS011;19119;52.474;13.710;2023-05-07T08:15:47;4.78;;;3.47;;
32748;SDS011;19119;52.474;13.710;2023-05-07T08:18:13;3.85;;;2.83;;
32748;SDS011;19119;52.474;13.710;2023-05-07T08:20:38;5.65;;;3.33;;
32748;SDS011;19119;52.474;13.710;2023-05-07T08:23:04;5.35;;;3.35;;
32748;SDS011;19119;52.474;13.710;2023-05-07T08:25:32;4.85;;;3.08;;
32748;SDS011;19119;52.474;13.710;2023-05-07T08:27:59;4.38;;;2.90;;
32748;SDS011;19119;52.474;13.710;2023-05-07T08:30:24;5.03;;;3.15;;
32748;SDS011;19119;52.474;13.710;2023-05-07T08:32:50;6.03;;;2.90;;
32748;SDS011;19119;52.474;13.710;2023-05-07T08:35:15;7.93;;;3.15;;
32748;SDS011;19119;52.474;13.710;2023-05-07T08:37:41;8.07;;;3.55;;
32748;SDS011;19119;52.474;13.710;2023-05-07T08:40:07;5.00;;;3.38;;
32748;SDS011;19119;52.474;13.710;2023-05-07T08:42:35;7.07;;;3.45;;
32748;SDS011;19119;52.474;13.710;2023-05-07T08:45:04;4.88;;;3.00;;
32748;SDS011;19119;52.474;13.710;2023-05-07T08:47:35;5.35;;;3.28;;
32748;SDS011;19119;52.474;13.710;2023-05-07T08:50:12;6.43;;;3.10;;
32748;SDS011;19119;52.474;13.710;2023-05-07T08:52:38;3.80;;;2.70;;
32748;SDS011;19119;52.474;13.710;2023-05-07T08:55:05;5.22;;;2.80;;
32748;SDS011;19119;52.474;13.710;2023-05-07T08:57:32;5.97;;;2.70;;
32748;SDS011;19119;52.474;13.710;2023-05-07T08:59:58;5.63;;;2.80;;
32748;SDS011;19119;52.474;13.710;2023-05-07T09:02:23;4.65;;;2.92;;
32748;SDS011;19119;52.474;13.710;2023-05-07T09:04:49;4.82;;;2.78;;
32748;SDS011;19119;52.474;13.710;2023-05-07T09:07:15;5.28;;;2.88;;
32748;SDS011;19119;52.474;13.710;2023-05-07T09:09:41;4.05;;;2.00;;
32748;SDS011;19119;52.474;13.710;2023-05-07T09:12:08;4.65;;;2.58;;
32748;SDS011;19119;52.474;13.710;2023-05-07T09:14:34;2.97;;;2.30;;
32748;SDS011;19119;52.474;13.710;2023-05-07T09:17:00;5.18;;;2.30;;
32748;SDS011;19119;52.474;13.710;2023-05-07T09:19:26;2.42;;;2.03;;
32748;SDS011;19119;52.474;13.710;2023-05-07T09:21:59;3.85;;;2.55;;
32748;SDS011;19119;52.474;13.710;2023-05-07T09:24:26;3.13;;;1.80;;
32748;SDS011;19119;52.474;13.710;2023-05-07T09:26:54;3.58;;;2.17;;
32748;SDS011;19119;52.474;13.710;2023-05-07T09:29:22;2.88;;;1.42;;
32748;SDS011;19119;52.474;13.710;2023-05-07T09:31:47;3.70;;;1.73;;
32748;SDS011;19119;52.474;13.710;2023-05-07T09:34:13;2.15;;;1.45;;
32748;SDS011;19119;52.474;13.710;2023-05-07T09:36:38;2.58;;;1.80;;
32748;SDS011;19119;52.474;13.710;2023-05-07T09:39:04;2.35;;;1.40;;
32748;SDS011;19119;52.474;13.710;2023-05-07T09:41:30;2.83;;;1.55;;
32748;SDS011;19119;52.474;13.710;2023-05-07T09:43:57;4.15;;;1.80;;
32748;SDS011;19119;52.474;13.710;2023-05-07T09:46:30;4.90;;;1.88;;
32748;SDS011;19119;52.474;13.710;2023-05-07T09:48:57;2.45;;;1.42;;
32748;SDS011;19119;52.474;13.710;2023-05-07T09:51:25;2.05;;;1.48;;
32748;SDS011;19119;52.474;13.710;2023-05-07T09:53:54;3.50;;;1.48;;
32748;SDS011;19119;52.474;13.710;2023-05-07T09:56:21;4.15;;;1.63;;
32748;SDS011;19119;52.474;13.710;2023-05-07T09:58:48;3.17;;;1.83;;
32748;SDS011;19119;52.474;13.710;2023-05-07T10:01:16;2.55;;;1.58;;
32748;SDS011;19119;52.474;13.710;2023-05-07T10:03:44;2.78;;;1.63;;
32748;SDS011;19119;52.474;13.710;2023-05-07T10:06:10;3.08;;;1.70;;
32748;SDS011;19119;52.474;13.710;2023-05-07T10:08:38;3.13;;;1.67;;
32748;SDS011;19119;52.474;13.710;2023-05-07T10:11:04;3.88;;;1.48;;
32748;SDS011;19119;52.474;13.710;2023-05-07T10:13:31;2.28;;;1.60;;
32748;SDS011;19119;52.474;13.710;2023-05-07T10:16:05;3.70;;;1.52;;
32748;SDS011;19119;52.474;13.710;2023-05-07T10:18:31;2.28;;;1.55;;
32748;SDS011;19119;52.474;13.710;2023-05-07T10:21:08;3.20;;;2.13;;
32748;SDS011;19119;52.474;13.710;2023-05-07T10:23:38;5.15;;;1.27;;
32748;SDS011;19119;52.474;13.710;2023-05-07T10:26:06;2.28;;;1.42;;
32748;SDS011;19119;52.474;13.710;2023-05-07T10:28:34;2.88;;;1.52;;
32748;SDS011;19119;52.474;13.710;2023-05-07T10:31:10;3.25;;;1.48;;
32748;SDS011;19119;52.474;13.710;2023-05-07T10:33:45;4.57;;;1.40;;
32748;SDS011;19119;52.474;13.710;2023-05-07T10:36:13;3.35;;;1.67;;
32748;SDS011;19119;52.474;13.710;2023-05-07T10:38:39;2.55;;;1.60;;
32748;SDS011;19119;52.474;13.710;2023-05-07T10:41:05;2.90;;;1.83;;
32748;SDS011;19119;52.474;13.710;2023-05-07T10:43:38;2.83;;;1.45;;
32748;SDS011;19119;52.474;13.710;2023-05-07T10:46:14;2.75;;;1.48;;
32748;SDS011;19119;52.474;13.710;2023-05-07T10:51:33;2.35;;;1.73;;
32748;SDS011;19119;52.474;13.710;2023-05-07T10:54:18;2.67;;;1.70;;
32748;SDS011;19119;52.474;13.710;2023-05-07T10:56:43;3.58;;;1.60;;
32748;SDS011;19119;52.474;13.710;2023-05-07T11:02:04;2.20;;;1.70;;
32748;SDS011;19119;52.474;13.710;2023-05-07T11:04:32;3.30;;;1.70;;
32748;SDS011;19119;52.474;13.710;2023-05-07T11:15:04;2.40;;;1.45;;
32748;SDS011;19119;52.474;13.710;2023-05-07T11:17:32;3.17;;;1.38;;
32748;SDS011;19119;52.474;13.710;2023-05-07T11:19:59;3.92;;;1.38;;
32748;SDS011;19119;52.474;13.710;2023-05-07T11:25:01;3.47;;;1.45;;
32748;SDS011;19119;52.474;13.710;2023-05-07T11:27:27;2.50;;;1.85;;
32748;SDS011;19119;52.474;13.710;2023-05-07T11:29:54;2.38;;;1.40;;
32748;SDS011;19119;52.474;13.710;2023-05-07T11:32:23;2.38;;;1.25;;
32748;SDS011;19119;52.474;13.710;2023-05-07T11:34:52;2.65;;;1.50;;
32748;SDS011;19119;52.474;13.710;2023-05-07T11:37:22;3.30;;;1.50;;
32748;SDS011;19119;52.474;13.710;2023-05-07T11:39:49;4.07;;;1.42;;
32748;SDS011;19119;52.474;13.710;2023-05-07T11:42:29;2.72;;;1.20;;
32748;SDS011;19119;52.474;13.710;2023-05-07T11:44:56;3.35;;;1.40;;
32748;SDS011;19119;52.474;13.710;2023-05-07T11:47:22;2.38;;;1.40;;
32748;SDS011;19119;52.474;13.710;2023-05-07T11:49:49;2.03;;;1.33;;
32748;SDS011;19119;52.474;13.710;2023-05-07T11:52:16;1.83;;;1.20;;
32748;SDS011;19119;52.474;13.710;2023-05-07T11:54:56;2.67;;;1.75;;
32748;SDS011;19119;52.474;13.710;2023-05-07T11:57:23;3.17;;;1.00;;
32748;SDS011;19119;52.474;13.710;2023-05-07T11:59:58;1.48;;;1.15;;
32748;SDS011;19119;52.474;13.710;2023-05-07T12:02:27;2.60;;;1.13;;
32748;SDS011;19119;52.474;13.710;2023-05-07T12:04:54;1.98;;;1.30;;
32748;SDS011;19119;52.474;13.710;2023-05-07T12:07:23;2.92;;;1.20;;
32748;SDS011;19119;52.474;13.710;2023-05-07T12:09:49;2.22;;;1.20;;
32748;SDS011;19119;52.474;13.710;2023-05-07T12:12:15;1.92;;;1.23;;
32748;SDS011;19119;52.474;13.710;2023-05-07T12:14:42;4.43;;;1.48;;
32748;SDS011;19119;52.474;13.710;2023-05-07T12:17:09;2.53;;;1.27;;
32748;SDS011;19119;52.474;13.710;2023-05-07T12:19:39;2.13;;;1.20;;
32748;SDS011;19119;52.474;13.710;2023-05-07T12:22:09;2.22;;;1.27;;
32748;SDS011;19119;52.474;13.710;2023-05-07T12:24:43;2.97;;;1.00;;
32748;SDS011;19119;52.474;13.710;2023-05-07T12:27:08;3.70;;;1.95;;
32748;SDS011;19119;52.474;13.710;2023-05-07T12:29:34;1.55;;;1.17;;
32748;SDS011;19119;52.474;13.710;2023-05-07T12:32:00;2.85;;;1.10;;
32748;SDS011;19119;52.474;13.710;2023-05-07T12:34:25;2.60;;;1.20;;
32748;SDS011;19119;52.474;13.710;2023-05-07T12:36:51;2.60;;;1.00;;
32748;SDS011;19119;52.474;13.710;2023-05-07T12:39:16;3.15;;;1.23;;
32748;SDS011;19119;52.474;13.710;2023-05-07T12:41:55;2.15;;;1.20;;
32748;SDS011;19119;52.474;13.710;2023-05-07T12:44:45;2.35;;;1.23;;
32748;SDS011;19119;52.474;13.710;2023-05-07T12:47:11;3.20;;;1.20;;
32748;SDS011;19119;52.474;13.710;2023-05-07T12:49:37;2.40;;;1.50;;
32748;SDS011;19119;52.474;13.710;2023-05-07T12:52:04;1.92;;;1.38;;
32748;SDS011;19119;52.474;13.710;2023-05-07T12:54:31;3.15;;;1.33;;
32748;SDS011;19119;52.474;13.710;2023-05-07T12:57:05;4.47;;;1.38;;
32748;SDS011;19119;52.474;13.710;2023-05-07T12:59:32;3.03;;;1.20;;
32748;SDS011;19119;52.474;13.710;2023-05-07T13:01:58;2.42;;;1.42;;
32748;SDS011;19119;52.474;13.710;2023-05-07T13:04:24;3.38;;;1.40;;
32748;SDS011;19119;52.474;13.710;2023-05-07T13:06:50;2.90;;;1.38;;
32748;SDS011;19119;52.474;13.710;2023-05-07T13:09:15;1.88;;;1.23;;
32748;SDS011;19119;52.474;13.710;2023-05-07T13:11:41;2.15;;;1.08;;
32748;SDS011;19119;52.474;13.710;2023-05-07T13:14:06;6.85;;;1.33;;
32748;SDS011;19119;52.474;13.710;2023-05-07T13:16:33;1.98;;;1.40;;
32748;SDS011;19119;52.474;13.710;2023-05-07T13:18:58;3.03;;;1.33;;
32748;SDS011;19119;52.474;13.710;2023-05-07T13:21:24;2.35;;;1.50;;
32748;SDS011;19119;52.474;13.710;2023-05-07T13:23:49;2.20;;;1.50;;
32748;SDS011;19119;52.474;13.710;2023-05-07T13:26:15;2.38;;;1.40;;
32748;SDS011;19119;52.474;13.710;2023-05-07T13:28:40;3.97;;;1.20;;
32748;SDS011;19119;52.474;13.710;2023-05-07T13:31:06;4.55;;;1.42;;
32748;SDS011;19119;52.474;13.710;2023-05-07T13:33:32;2.55;;;1.35;;
32748;SDS011;19119;52.474;13.710;2023-05-07T13:35:58;1.40;;;1.10;;
32748;SDS011;19119;52.474;13.710;2023-05-07T13:38:25;3.95;;;1.17;;
32748;SDS011;19119;52.474;13.710;2023-05-07T13:40:51;2.15;;;1.08;;
32748;SDS011;19119;52.474;13.710;2023-05-07T13:43:17;2.75;;;1.20;;
32748;SDS011;19119;52.474;13.710;2023-05-07T13:45:43;1.55;;;1.08;;
32748;SDS011;19119;52.474;13.710;2023-05-07T13:48:09;4.53;;;1.42;;
32748;SDS011;19119;52.474;13.710;2023-05-07T13:50:35;2.38;;;1.25;;
32748;SDS011;19119;52.474;13.710;2023-05-07T13:53:00;3.13;;;1.40;;
32748;SDS011;19119;52.474;13.710;2023-05-07T13:55:28;1.58;;;1.20;;
32748;SDS011;19119;52.474;13.710;2023-05-07T13:57:58;2.65;;;1.17;;
32748;SDS011;19119;52.474;13.710;2023-05-07T14:00:25;2.08;;;1.00;;
32748;SDS011;19119;52.474;13.710;2023-05-07T14:02:52;1.48;;;1.08;;
32748;SDS011;19119;52.474;13.710;2023-05-07T14:05:18;1.42;;;1.10;;
32748;SDS011;19119;52.474;13.710;2023-05-07T14:07:43;3.03;;;1.27;;
32748;SDS011;19119;52.474;13.710;2023-05-07T14:10:09;2.10;;;1.35;;
32748;SDS011;19119;52.474;13.710;2023-05-07T14:12:36;2.58;;;1.08;;
32748;SDS011;19119;52.474;13.710;2023-05-07T14:15:01;1.88;;;1.23;;
32748;SDS011;19119;52.474;13.710;2023-05-07T14:17:27;2.38;;;1.17;;
32748;SDS011;19119;52.474;13.710;2023-05-07T14:19:53;2.97;;;1.60;;
32748;SDS011;19119;52.474;13.710;2023-05-07T14:22:19;2.75;;;1.13;;
32748;SDS011;19119;52.474;13.710;2023-05-07T14:24:47;3.83;;;1.05;;
32748;SDS011;19119;52.474;13.710;2023-05-07T14:27:12;3.17;;;1.08;;
32748;SDS011;19119;52.474;13.710;2023-05-07T14:29:38;2.13;;;1.10;;
32748;SDS011;19119;52.474;13.710;2023-05-07T14:32:04;2.72;;;1.30;;
32748;SDS011;19119;52.474;13.710;2023-05-07T14:34:30;3.25;;;1.40;;
32748;SDS011;19119;52.474;13.710;2023-05-07T14:36:56;1.70;;;0.80;;
32748;SDS011;19119;52.474;13.710;2023-05-07T14:39:22;2.15;;;1.15;;